Schaumburg, Illinois
Current Conditions -  °F | °C
As of 6:51 AM on Thursday 30 Oct 2014 (Local Time) from KORD Reporting Station
Broken Clouds Broken Clouds  
Wind Chill: 35°   Ceiling: 18000
Heat Index: 35°   Visibility: 10mi
Dew Point: 31°   Wind: 0mph
Humidity: 85%   Direction: NA
Pressure: 30.13"   Gusts: NA
Location:  42.03°N, 88.07°W
Report Text: KORD 301151Z 00000KT 10SM BKN180 02/M01 A3013 RMK AO2 SLP208 T00171006 10033 20000 53001
Loading
Personal Weather Stations






























Interactive Weather Map
Tropical Storm Tracking
New forecast layout! Learn more

10-Day Weather Forecast

Advertisements
Track Severe Weather on mobile